Time;durP1;ratioP1;P1;durP2;ratioP2;P2;SDS_P1;SDS_P2;PMS_P1;PMS_P2;Temp;Humidity;BMP_temperature;BMP_pressure;BME280_temperature;BME280_humidity;BME280_pressure;Samples;Min_cycle;Max_cycle;Signal;HPM_P1;HPM_P2
2023/02/10 00:00:16;;;;;;;54.70;25.30;;;;;;;-4.22;100.00;97522.34;1030805;28;20495;-70
2023/02/10 00:00:47;;;;;;;64.63;27.17;;;;;;;-4.25;100.00;97525.13;1031056;28;20365;-66
2023/02/10 00:01:19;;;;;;;61.47;27.13;;;;;;;-4.23;100.00;97532.69;1031028;28;20038;-67
2023/02/10 00:01:50;;;;;;;61.35;27.40;;;;;;;-4.26;100.00;97528.63;1026767;28;20027;-68
2023/02/10 00:02:20;;;;;;;55.07;26.00;;;;;;;-4.33;100.00;97525.75;1026991;28;20031;-69
2023/02/10 00:02:51;;;;;;;61.07;26.30;;;;;;;-4.35;100.00;97526.84;1027342;28;20030;-66
2023/02/10 00:03:21;;;;;;;55.83;25.97;;;;;;;-4.35;100.00;97534.50;1029863;28;20116;-66
2023/02/10 00:03:52;;;;;;;59.87;26.80;;;;;;;-4.39;100.00;97521.16;1039185;28;20026;-69
2023/02/10 00:04:22;;;;;;;55.13;26.17;;;;;;;-4.30;100.00;97532.38;1026802;28;20025;-70
2023/02/10 00:04:53;;;;;;;55.20;25.97;;;;;;;-4.30;100.00;97532.38;1030639;28;20549;-70
2023/02/10 00:05:23;;;;;;;61.37;26.67;;;;;;;-4.34;100.00;97528.44;1022993;29;20026;-67
2023/02/10 00:05:57;;;;;;;60.57;25.77;;;;;;;-4.38;100.00;97532.19;1022995;28;20019;-65
2023/02/10 00:06:27;;;;;;;54.50;25.67;;;;;;;-4.41;100.00;97537.56;1026764;28;20177;-66
2023/02/10 00:06:58;;;;;;;53.80;25.17;;;;;;;-4.42;100.00;97534.19;1022569;28;20122;-68
2023/02/10 00:07:28;;;;;;;60.00;26.53;;;;;;;-4.47;100.00;97530.38;1022698;29;20062;-70
2023/02/10 00:07:59;;;;;;;68.17;26.07;;;;;;;-4.47;100.00;97531.19;1029821;28;20065;-72
2023/02/10 00:08:29;;;;;;;54.37;24.17;;;;;;;-4.50;100.00;97537.34;1030658;28;20050;-68
2023/02/10 00:09:00;;;;;;;56.27;25.20;;;;;;;-4.51;100.00;97535.75;1023034;28;20030;-64
2023/02/10 00:09:31;;;;;;;60.60;25.77;;;;;;;-4.52;100.00;97533.31;1021603;29;20027;-68
2023/02/10 00:10:01;;;;;;;59.17;26.17;;;;;;;-4.53;100.00;97539.34;1022614;29;20311;-66
2023/02/10 00:10:32;;;;;;;63.03;27.33;;;;;;;-4.51;100.00;97537.50;1022739;28;20031;-68
2023/02/10 00:11:04;;;;;;;56.63;26.67;;;;;;;-4.55;100.00;97534.38;1035212;28;20030;-70
2023/02/10 00:12:23;;;;;;;53.35;23.50;;;;;;;-4.53;100.00;97541.91;1039428;28;20098;-67
2023/02/10 00:12:54;;;;;;;59.17;25.90;;;;;;;-4.54;100.00;97541.09;1036233;28;20033;-66
2023/02/10 00:13:25;;;;;;;55.53;24.80;;;;;;;-4.57;100.00;97543.09;1032235;28;20034;-70
2023/02/10 00:13:55;;;;;;;62.67;27.23;;;;;;;-4.65;100.00;97536.03;1036711;28;20030;-66
2023/02/10 00:14:27;;;;;;;58.27;26.27;;;;;;;-4.63;100.00;97549.53;1038601;28;20021;-67
2023/02/10 00:14:58;;;;;;;59.38;25.33;;;;;;;-4.65;100.00;97551.41;1031107;28;20070;-67
2023/02/10 00:15:28;;;;;;;57.60;26.20;;;;;;;-4.66;100.00;97551.50;1030239;28;20037;-68
2023/02/10 00:16:02;;;;;;;55.87;26.17;;;;;;;-4.73;100.00;97546.06;1030797;28;20038;-69
2023/02/10 00:16:32;;;;;;;54.42;26.00;;;;;;;-4.72;100.00;97545.16;1027741;28;20023;-69
2023/02/10 00:17:03;;;;;;;57.47;25.07;;;;;;;-4.75;100.00;97553.06;1030034;28;20391;-68
2023/02/10 00:17:33;;;;;;;55.57;26.23;;;;;;;-4.77;100.00;97548.06;1030397;28;20029;-68
2023/02/10 00:18:04;;;;;;;59.33;25.20;;;;;;;-4.81;100.00;97545.88;1027466;28;20034;-66
2023/02/10 00:18:34;;;;;;;53.17;25.53;;;;;;;-4.84;100.00;97549.47;1034634;28;20025;-68
2023/02/10 00:19:05;;;;;;;61.17;26.47;;;;;;;-4.89;100.00;97543.94;1034708;28;20025;-68
2023/02/10 00:19:35;;;;;;;53.67;25.47;;;;;;;-4.88;100.00;97547.31;1026810;28;20050;-68
2023/02/10 00:20:07;;;;;;;59.40;25.23;;;;;;;-4.92;100.00;97551.03;1030796;28;20629;-63
2023/02/10 00:20:38;;;;;;;59.28;26.85;;;;;;;-4.93;100.00;97550.19;1023067;28;20020;-62
2023/02/10 00:21:10;;;;;;;62.90;26.80;;;;;;;-4.95;100.00;97546.16;1031401;28;20034;-70
2023/02/10 00:21:41;;;;;;;60.72;26.75;;;;;;;-4.94;100.00;97547.78;1034304;28;20491;-69
2023/02/10 00:22:11;;;;;;;57.47;26.53;;;;;;;-4.97;100.00;97544.50;1026989;28;20037;-68
2023/02/10 00:22:41;;;;;;;65.60;28.07;;;;;;;-5.03;100.00;97542.47;1025894;28;20548;-66
2023/02/10 00:23:12;;;;;;;55.93;26.00;;;;;;;-5.01;100.00;97552.56;1022838;29;20074;-65
2023/02/10 00:23:43;;;;;;;58.40;27.13;;;;;;;-5.05;100.00;97540.94;1018711;28;20035;-66
2023/02/10 00:24:13;;;;;;;58.23;26.43;;;;;;;-5.10;100.00;97545.59;1026870;28;20038;-70
2023/02/10 00:24:44;;;;;;;58.63;26.57;;;;;;;-5.00;100.00;97549.91;1018735;29;20116;-69
2023/02/10 00:25:14;;;;;;;69.73;28.20;;;;;;;-5.00;100.00;97546.50;1018809;29;20536;-68
2023/02/10 00:25:45;;;;;;;66.77;28.97;;;;;;;-5.03;100.00;97544.19;1018797;29;20032;-69
2023/02/10 00:26:15;;;;;;;60.03;26.47;;;;;;;-5.06;100.00;97550.38;1026917;28;20031;-69
2023/02/10 00:26:46;;;;;;;59.90;27.50;;;;;;;-5.14;100.00;97542.47;1029909;28;20756;-66
2023/02/10 00:27:22;;;;;;;62.87;26.73;;;;;;;-5.11;100.00;97544.78;1030556;28;20071;-67
2023/02/10 00:27:53;;;;;;;58.95;26.13;;;;;;;-5.10;100.00;97551.53;1029830;28;20026;-70
2023/02/10 00:28:23;;;;;;;56.93;26.93;;;;;;;-5.13;100.00;97550.94;1030986;28;20053;-67
2023/02/10 00:28:54;;;;;;;65.50;28.30;;;;;;;-5.13;100.00;97533.88;1028275;28;20484;-68
2023/02/10 00:29:25;;;;;;;67.67;27.80;;;;;;;-5.11;100.00;97544.78;1030436;28;20057;-67
2023/02/10 00:29:56;;;;;;;59.75;28.52;;;;;;;-5.08;100.00;97547.09;1034497;28;20025;-67
2023/02/10 00:30:26;;;;;;;61.27;28.37;;;;;;;-5.01;100.00;97543.13;1030425;28;20038;-68
2023/02/10 00:30:57;;;;;;;62.73;27.90;;;;;;;-4.99;100.00;97548.97;1034349;28;20022;-68
2023/02/10 00:31:27;;;;;;;74.60;30.30;;;;;;;-5.00;100.00;97549.91;1038758;28;20434;-67
2023/02/10 00:32:00;;;;;;;62.70;27.93;;;;;;;-5.05;100.00;97544.31;1034487;28;20037;-66
2023/02/10 00:32:31;;;;;;;67.57;29.45;;;;;;;-5.04;100.00;97552.81;1026516;28;20063;-67
2023/02/10 00:33:01;;;;;;;66.07;26.73;;;;;;;-5.13;100.00;97544.13;1030524;28;20041;-66
2023/02/10 00:33:32;;;;;;;67.87;28.03;;;;;;;-5.10;100.00;97543.84;1027142;28;20050;-67
2023/02/10 00:34:02;;;;;;;61.90;25.80;;;;;;;-5.12;100.00;97544.94;1031250;28;20424;-68
2023/02/10 00:34:33;;;;;;;61.67;28.10;;;;;;;-5.14;100.00;97547.59;1030733;28;20018;-68
2023/02/10 00:35:03;;;;;;;62.90;27.23;;;;;;;-5.15;100.00;97555.41;1030943;28;20542;-69
2023/02/10 00:35:34;;;;;;;58.43;26.23;;;;;;;-5.18;100.00;97556.44;1030990;28;20053;-68
2023/02/10 00:36:08;;;;;;;66.27;28.00;;;;;;;-5.16;100.00;97553.75;1034553;28;20041;-66
2023/02/10 00:36:39;;;;;;;58.08;25.98;;;;;;;-5.21;100.00;97551.56;1026463;28;20089;-68
2023/02/10 00:37:09;;;;;;;61.93;27.37;;;;;;;-5.16;100.00;97556.31;1026633;28;20031;-68
2023/02/10 00:37:40;;;;;;;66.07;28.23;;;;;;;-5.21;100.00;97556.66;1025726;28;20030;-65
2023/02/10 00:38:10;;;;;;;65.30;27.57;;;;;;;-5.24;100.00;97556.91;1031054;28;20038;-67
2023/02/10 00:38:41;;;;;;;63.07;27.30;;;;;;;-5.27;100.00;97549.47;1038745;28;20118;-66
2023/02/10 00:39:13;;;;;;;61.47;27.03;;;;;;;-5.30;100.00;97547.13;1039323;28;20025;-69
2023/02/10 00:39:45;;;;;;;61.67;26.88;;;;;;;-5.25;100.00;97558.66;1034322;28;20032;-70
2023/02/10 00:40:16;;;;;;;61.17;27.95;;;;;;;-5.28;100.00;97566.56;1030908;28;20122;-68
2023/02/10 00:40:46;;;;;;;63.57;26.70;;;;;;;-5.27;100.00;97564.81;1030953;28;20060;-66
2023/02/10 00:41:18;;;;;;;68.77;27.90;;;;;;;-5.33;100.00;97561.00;1026901;28;20042;-69
2023/02/10 00:41:49;;;;;;;65.25;27.08;;;;;;;-5.34;100.00;97564.47;1026138;28;20074;-68
2023/02/10 00:42:19;;;;;;;61.23;26.30;;;;;;;-5.41;100.00;97557.41;1023175;29;20101;-68
2023/02/10 00:42:50;;;;;;;58.83;27.00;;;;;;;-5.37;100.00;97563.91;1028747;28;20034;-66
2023/02/10 00:43:20;;;;;;;62.90;27.10;;;;;;;-5.36;100.00;97563.00;1034906;28;20511;-72
2023/02/10 00:43:51;;;;;;;66.80;28.37;;;;;;;-5.36;100.00;97563.78;1038639;28;20052;-66
2023/02/10 00:44:21;;;;;;;63.80;27.70;;;;;;;-5.37;100.00;97566.44;1034350;28;20049;-68
2023/02/10 00:44:55;;;;;;;66.55;28.75;;;;;;;-5.37;100.00;97567.25;1034954;28;20777;-67
2023/02/10 00:45:25;;;;;;;64.53;27.90;;;;;;;-5.40;100.00;97561.56;1030481;28;20046;-66
2023/02/10 00:45:55;;;;;;;62.00;27.87;;;;;;;-5.41;100.00;97565.06;1027083;28;20062;-70
2023/02/10 00:46:26;;;;;;;61.93;27.87;;;;;;;-5.43;100.00;97569.47;1030175;28;20031;-66
2023/02/10 00:46:56;;;;;;;59.63;27.10;;;;;;;-5.42;100.00;97568.56;1030118;28;20030;-67
2023/02/10 00:47:27;;;;;;;67.73;28.20;;;;;;;-5.45;100.00;97570.41;1035125;28;20034;-68
2023/02/10 00:47:57;;;;;;;60.10;26.67;;;;;;;-5.52;100.00;97555.66;1030335;28;20094;-70
2023/02/10 00:48:28;;;;;;;67.87;29.00;;;;;;;-5.52;100.00;97564.16;1026563;28;20114;-66
2023/02/10 00:48:58;;;;;;;62.83;28.57;;;;;;;-5.46;100.00;97578.22;1027012;28;20027;-69
2023/02/10 00:49:29;;;;;;;61.53;26.27;;;;;;;-5.46;100.00;97579.03;1022560;28;20031;-69
2023/02/10 00:49:59;;;;;;;67.37;28.20;;;;;;;-5.40;100.00;97576.91;1034342;28;20021;-67
2023/02/10 00:50:30;;;;;;;66.03;28.50;;;;;;;-5.41;100.00;97575.31;1038216;28;20112;-68
2023/02/10 00:51:00;;;;;;;64.97;27.37;;;;;;;-5.42;100.00;97573.69;1029056;28;20026;-71
2023/02/10 00:51:32;;;;;;;61.20;27.23;;;;;;;-5.43;100.00;97574.59;1030527;28;20550;-68
2023/02/10 00:52:02;;;;;;;61.72;27.40;;;;;;;-5.46;100.00;97573.91;1022442;29;20644;-67
2023/02/10 00:52:33;;;;;;;66.07;28.33;;;;;;;-5.49;100.00;97578.44;1022734;29;20031;-67
2023/02/10 00:53:03;;;;;;;55.23;26.77;;;;;;;-5.53;100.00;97577.88;1019038;28;20098;-66
2023/02/10 00:53:34;;;;;;;65.67;28.07;;;;;;;-5.53;100.00;97582.19;1026668;28;20035;-67
2023/02/10 00:54:04;;;;;;;63.40;26.90;;;;;;;-5.56;100.00;97574.72;1026409;28;20042;-67
2023/02/10 00:54:35;;;;;;;58.33;26.73;;;;;;;-5.57;100.00;97575.63;1026850;28;20054;-64
2023/02/10 00:55:05;;;;;;;59.27;25.47;;;;;;;-5.62;100.00;97576.00;1026370;28;20033;-67
2023/02/10 00:55:36;;;;;;;61.17;27.80;;;;;;;-5.62;100.00;97575.19;1026414;28;20035;-69
2023/02/10 00:56:06;;;;;;;57.93;26.27;;;;;;;-5.65;100.00;97570.31;1026399;28;20524;-68
2023/02/10 00:56:37;;;;;;;68.37;27.33;;;;;;;-5.68;100.00;97584.13;1021980;29;20027;-64
2023/02/10 00:57:07;;;;;;;64.23;28.27;;;;;;;-5.72;100.00;97575.06;1022837;28;20058;-67
2023/02/10 00:57:38;;;;;;;65.33;27.43;;;;;;;-5.76;100.00;97578.78;1030982;28;20022;-69
2023/02/10 00:58:08;;;;;;;70.20;28.77;;;;;;;-5.74;100.00;97584.59;1030491;28;20050;-69
2023/02/10 00:58:42;;;;;;;64.53;27.90;;;;;;;-5.76;100.00;97581.34;1038986;28;20742;-70
2023/02/10 00:59:12;;;;;;;68.07;28.23;;;;;;;-5.77;100.00;97585.66;1037888;28;20119;-69
2023/02/10 00:59:43;;;;;;;66.90;28.80;;;;;;;-5.79;100.00;97584.94;1039232;28;20847;-71
2023/02/10 01:00:14;;;;;;;62.37;26.80;;;;;;;-5.78;100.00;97589.13;1038661;28;20104;-68
2023/02/10 01:00:44;;;;;;;61.37;27.77;;;;;;;-5.79;100.00;97581.56;1038626;28;20036;-68
2023/02/10 01:01:15;;;;;;;66.10;27.27;;;;;;;-5.78;100.00;97583.19;1034873;28;20018;-67
2023/02/10 01:01:45;;;;;;;64.03;27.23;;;;;;;-5.82;100.00;97585.16;1026263;28;20033;-67
2023/02/10 01:02:16;;;;;;;67.00;29.00;;;;;;;-5.83;100.00;97587.84;1026677;28;20022;-71
2023/02/10 01:02:46;;;;;;;64.23;26.83;;;;;;;-5.81;100.00;97583.41;1030878;28;20426;-66
2023/02/10 01:03:17;;;;;;;63.83;27.70;;;;;;;-5.84;100.00;97588.75;1038462;28;20508;-67
2023/02/10 01:03:47;;;;;;;68.30;27.63;;;;;;;-5.86;100.00;97586.31;1038435;28;20028;-69
2023/02/10 01:04:18;;;;;;;76.20;29.00;;;;;;;-5.89;100.00;97586.56;1034685;28;20030;-70
2023/02/10 01:04:48;;;;;;;69.70;28.13;;;;;;;-5.88;100.00;97592.47;1026264;28;20030;-68
2023/02/10 01:05:19;;;;;;;62.37;26.93;;;;;;;-5.92;100.00;97591.88;1022896;29;20777;-73
2023/02/10 01:05:49;;;;;;;66.97;28.53;;;;;;;-5.96;100.00;97585.41;1026542;28;20015;-67
2023/02/10 01:06:20;;;;;;;65.70;26.63;;;;;;;-5.94;100.00;97589.47;1034848;28;20022;-67
2023/02/10 01:06:50;;;;;;;62.13;26.40;;;;;;;-5.98;100.00;97590.63;1033925;28;20526;-68
2023/02/10 01:07:21;;;;;;;59.13;27.27;;;;;;;-5.99;100.00;97585.63;1034119;28;20030;-65
2023/02/10 01:07:52;;;;;;;67.17;27.37;;;;;;;-6.02;100.00;97590.97;1030515;28;20093;-64
2023/02/10 01:08:23;;;;;;;66.90;28.40;;;;;;;-6.06;100.00;97585.28;1026827;28;20509;-66
2023/02/10 01:08:53;;;;;;;63.93;25.93;;;;;;;-6.04;100.00;97593.63;1026466;28;20030;-67
2023/02/10 01:09:24;;;;;;;57.13;27.17;;;;;;;-6.06;100.00;97589.56;1022882;29;20516;-67
2023/02/10 01:09:54;;;;;;;61.23;26.97;;;;;;;-6.07;100.00;97593.88;1022421;29;20019;-69
2023/02/10 01:10:24;;;;;;;66.83;27.07;;;;;;;-6.07;100.00;97590.47;1022507;28;20056;-68
2023/02/10 01:11:13;;;;;;;60.80;26.60;;;;;;;-6.09;100.00;97592.34;1026578;28;20444;-66
2023/02/10 01:11:43;;;;;;;64.13;26.55;;;;;;;-6.11;100.00;97592.44;1026488;28;20086;-65
2023/02/10 01:12:14;;;;;;;62.83;26.43;;;;;;;-6.10;100.00;97598.38;1026716;28;20070;-68
2023/02/10 01:12:44;;;;;;;68.73;30.20;;;;;;;-6.10;100.00;97594.09;1026361;28;20042;-69
2023/02/10 01:13:15;;;;;;;63.17;27.67;;;;;;;-6.12;100.00;97590.03;1026819;28;20053;-67
2023/02/10 01:13:48;;;;;;;71.13;28.90;;;;;;;-6.04;100.00;97590.25;1022453;28;20050;-65
2023/02/10 01:14:19;;;;;;;66.75;27.58;;;;;;;-6.15;100.00;97580.84;1026520;28;20031;-67
2023/02/10 01:14:50;;;;;;;64.63;27.35;;;;;;;-6.08;100.00;97594.78;1030620;28;20026;-70
2023/02/10 01:15:20;;;;;;;69.13;29.17;;;;;;;-6.10;100.00;97594.09;1031913;28;20022;-67
2023/02/10 01:15:54;;;;;;;64.63;27.90;;;;;;;-6.13;100.00;97584.09;1038920;28;20036;-66
2023/02/10 01:16:25;;;;;;;76.00;29.13;;;;;;;-6.11;100.00;97581.41;1038576;28;20533;-71
2023/02/10 01:16:55;;;;;;;67.30;29.23;;;;;;;-6.08;100.00;97587.13;1025558;28;20125;-64
2023/02/10 01:17:25;;;;;;;70.53;27.90;;;;;;;-6.13;100.00;97591.75;1026603;28;20031;-67
2023/02/10 01:17:56;;;;;;;69.07;30.30;;;;;;;-6.13;100.00;97589.22;1022879;29;20038;-68
2023/02/10 01:18:27;;;;;;;67.40;30.90;;;;;;;-6.09;100.00;97589.78;1022461;28;20077;-68
2023/02/10 01:18:58;;;;;;;64.93;29.93;;;;;;;-6.14;100.00;97590.13;1026405;28;20019;-64
2023/02/10 01:19:28;;;;;;;71.35;28.50;;;;;;;-6.14;100.00;97591.88;1030349;28;20113;-69
2023/02/10 01:19:59;;;;;;;67.93;28.63;;;;;;;-6.16;100.00;97594.53;1030946;28;20042;-66
2023/02/10 01:20:32;;;;;;;65.50;28.23;;;;;;;-6.17;100.00;97598.00;1030511;28;20033;-70
2023/02/10 01:21:10;;;;;;;70.03;28.92;;;;;;;-6.17;100.00;97600.56;1022395;29;20098;-65
2023/02/10 01:21:41;;;;;;;61.13;26.65;;;;;;;-6.21;100.00;97596.59;1031943;28;20026;-69
2023/02/10 01:22:11;;;;;;;71.87;29.10;;;;;;;-6.18;100.00;97591.28;1027762;28;20133;-67
2023/02/10 01:22:41;;;;;;;69.70;27.87;;;;;;;-6.21;100.00;97592.31;1031525;28;20022;-66
2023/02/10 01:23:15;;;;;;;69.43;27.83;;;;;;;-6.22;100.00;97595.78;1034463;28;20780;-64
2023/02/10 01:23:46;;;;;;;77.70;29.67;;;;;;;-6.21;100.00;97594.06;1027036;28;20031;-66
2023/02/10 01:24:16;;;;;;;68.70;29.90;;;;;;;-6.27;100.00;97581.72;1026565;28;20026;-66
2023/02/10 01:24:46;;;;;;;76.10;29.30;;;;;;;-6.23;100.00;97593.38;1019193;29;20401;-71
2023/02/10 01:25:17;;;;;;;68.53;30.23;;;;;;;-6.22;100.00;97590.69;1022606;29;20466;-67
2023/02/10 01:25:47;;;;;;;72.50;29.10;;;;;;;-6.26;100.00;97591.03;1022712;28;20034;-66
2023/02/10 01:26:18;;;;;;;72.37;31.00;;;;;;;-6.26;100.00;97602.06;1026799;28;20520;-66
2023/02/10 01:26:49;;;;;;;67.40;29.20;;;;;;;-6.24;100.00;97596.81;1033913;28;20030;-68
2023/02/10 01:27:19;;;;;;;75.38;31.70;;;;;;;-6.28;100.00;97595.44;1034570;28;20030;-63
2023/02/10 01:27:50;;;;;;;70.97;30.80;;;;;;;-6.29;100.00;97601.47;1030362;28;20030;-65
2023/02/10 01:28:20;;;;;;;76.13;30.57;;;;;;;-6.30;100.00;97599.84;1026642;28;20042;-69
2023/02/10 01:28:51;;;;;;;72.57;29.20;;;;;;;-6.31;100.00;97603.31;1026799;28;20385;-70
2023/02/10 01:29:21;;;;;;;66.13;28.60;;;;;;;-6.31;100.00;97605.84;1026040;28;20066;-65
2023/02/10 01:29:52;;;;;;;74.67;29.03;;;;;;;-6.32;100.00;97604.25;1030702;28;20037;-68
2023/02/10 01:30:22;;;;;;;65.67;29.50;;;;;;;-6.33;100.00;97598.31;1030262;28;20034;-67
2023/02/10 01:30:53;;;;;;;74.63;28.67;;;;;;;-6.38;100.00;97597.81;1034313;28;20648;-70
2023/02/10 01:31:23;;;;;;;68.03;28.30;;;;;;;-6.34;100.00;97604.34;1022588;29;20038;-68
2023/02/10 01:31:54;;;;;;;69.00;29.20;;;;;;;-6.36;100.00;97596.00;1022413;29;20039;-67
2023/02/10 01:32:24;;;;;;;73.07;30.47;;;;;;;-6.35;100.00;97596.78;1018290;29;20394;-66
2023/02/10 01:32:55;;;;;;;72.13;28.97;;;;;;;-6.39;100.00;97592.84;1014927;28;20039;-67
2023/02/10 01:33:25;;;;;;;69.57;29.33;;;;;;;-6.34;100.00;97606.88;1033320;28;20036;-68
2023/02/10 01:33:55;;;;;;;72.57;29.47;;;;;;;-6.36;100.00;97602.84;1041386;28;20025;-63
2023/02/10 01:34:29;;;;;;;77.27;30.10;;;;;;;-6.38;100.00;97607.22;1042958;28;20059;-68
2023/02/10 01:34:59;;;;;;;69.68;29.45;;;;;;;-6.38;100.00;97602.94;1045291;28;20032;-65
2023/02/10 01:35:30;;;;;;;75.97;29.73;;;;;;;-6.39;100.00;97601.31;1041739;28;20021;-65
2023/02/10 01:36:05;;;;;;;65.97;27.87;;;;;;;-6.42;100.00;97599.78;1032509;28;20014;-67
2023/02/10 01:36:35;;;;;;;67.90;27.80;;;;;;;-6.42;100.00;97601.53;1031849;28;20054;-67
2023/02/10 01:37:06;;;;;;;68.77;29.93;;;;;;;-6.43;100.00;97602.47;1033424;28;20076;-65
2023/02/10 01:37:37;;;;;;;77.23;30.63;;;;;;;-6.42;100.00;97598.97;1030042;28;20015;-65
2023/02/10 01:38:08;;;;;;;75.53;29.98;;;;;;;-6.46;100.00;97593.28;1030802;28;20113;-66
2023/02/10 01:38:38;;;;;;;68.97;29.47;;;;;;;-6.46;100.00;97595.84;1032668;28;20022;-68
2023/02/10 01:39:09;;;;;;;66.63;30.30;;;;;;;-6.52;100.00;97590.34;1018703;29;20020;-70
2023/02/10 01:39:39;;;;;;;73.13;29.20;;;;;;;-6.46;100.00;97597.56;1028616;28;20026;-66
2023/02/10 01:40:10;;;;;;;72.50;29.63;;;;;;;-6.51;100.00;97589.41;1030225;28;20101;-66
2023/02/10 01:40:40;;;;;;;74.67;29.73;;;;;;;-6.47;100.00;97601.88;1035492;28;20049;-65
2023/02/10 01:41:13;;;;;;;74.17;30.63;;;;;;;-6.48;100.00;97594.31;1036051;28;20072;-71
2023/02/10 01:41:43;;;;;;;76.75;30.95;;;;;;;-6.39;100.00;97595.41;1033455;28;20089;-70
2023/02/10 01:42:14;;;;;;;77.37;32.47;;;;;;;-6.38;100.00;97597.00;1035214;28;20018;-68
2023/02/10 01:42:47;;;;;;;80.25;31.77;;;;;;;-6.28;100.00;97598.78;1035111;28;20569;-67
2023/02/10 01:43:18;;;;;;;82.15;32.58;;;;;;;-6.28;100.00;97601.34;1033602;28;20750;-66
2023/02/10 01:44:26;;;;;;;86.10;31.00;;;;;;;-6.29;100.00;97604.03;1030230;28;20015;-66
2023/02/10 01:45:11;;;;;;;77.18;30.25;;;;;;;-6.29;100.00;97599.72;1022306;29;20024;-68
2023/02/10 01:45:41;;;;;;;73.15;30.70;;;;;;;-6.30;100.00;97603.22;1020723;29;20392;-67
2023/02/10 01:46:12;;;;;;;68.80;29.47;;;;;;;-6.30;100.00;97604.97;1023978;28;20114;-67
2023/02/10 01:46:43;;;;;;;68.07;29.33;;;;;;;-6.34;100.00;97601.78;1031879;28;20018;-65
2023/02/10 01:47:13;;;;;;;77.83;29.90;;;;;;;-6.39;100.00;97603.06;1030180;28;20382;-67
2023/02/10 01:47:43;;;;;;;83.83;33.13;;;;;;;-6.37;100.00;97611.41;1026461;28;20025;-67
2023/02/10 01:48:14;;;;;;;69.10;30.53;;;;;;;-6.41;100.00;97605.72;1018374;29;20019;-68
2023/02/10 01:48:44;;;;;;;80.10;33.43;;;;;;;-6.43;100.00;97608.38;1026103;28;20473;-67
2023/02/10 01:49:17;;;;;;;77.27;31.23;;;;;;;-6.48;100.00;97599.41;1030549;28;20022;-65
2023/02/10 01:49:51;;;;;;;71.07;30.08;;;;;;;-6.43;100.00;97610.94;1026198;28;20023;-67
2023/02/10 01:50:23;;;;;;;69.43;30.77;;;;;;;-6.45;100.00;97612.78;1022487;29;20024;-65
2023/02/10 01:50:57;;;;;;;81.55;31.10;;;;;;;-6.47;100.00;97612.09;1013158;29;20039;-69
2023/02/10 01:51:38;;;;;;;77.10;29.15;;;;;;;-6.47;100.00;97613.78;1026183;28;20026;-65
2023/02/10 01:52:14;;;;;;;75.68;30.88;;;;;;;-6.45;100.00;97605.13;1028375;28;20026;-70
2023/02/10 01:52:44;;;;;;;70.60;28.60;;;;;;;-6.45;100.00;97610.22;1025172;28;20023;-69
2023/02/10 01:53:15;;;;;;;68.87;30.20;;;;;;;-6.48;100.00;97609.63;1022956;28;20031;-65
2023/02/10 01:53:45;;;;;;;74.77;32.07;;;;;;;-6.41;100.00;97611.63;1029391;28;20010;-66
2023/02/10 01:54:21;;;;;;;77.73;31.50;;;;;;;-6.50;100.00;97601.28;1027190;28;20058;-69
2023/02/10 01:54:59;;;;;;;76.13;30.52;;;;;;;-6.46;100.00;97608.59;1030273;28;20023;-66
2023/02/10 01:55:34;;;;;;;79.47;31.95;;;;;;;-6.48;100.00;97610.44;1032741;28;20586;-67
2023/02/10 01:56:05;;;;;;;76.32;30.42;;;;;;;-6.49;100.00;97608.00;1026576;28;20022;-66
2023/02/10 01:56:35;;;;;;;73.73;30.03;;;;;;;-6.48;100.00;97607.88;1027690;28;20045;-65
2023/02/10 01:57:05;;;;;;;73.90;29.67;;;;;;;-6.48;100.00;97612.19;1023089;28;20027;-69
2023/02/10 01:57:37;;;;;;;65.50;27.97;;;;;;;-6.55;100.00;97604.13;1022162;28;20493;-67
2023/02/10 01:58:09;;;;;;;69.72;28.55;;;;;;;-6.49;100.00;97606.25;1030088;28;20405;-66
2023/02/10 01:58:41;;;;;;;71.53;29.70;;;;;;;-6.50;100.00;97603.84;1026763;28;20110;-66
2023/02/10 01:59:12;;;;;;;72.97;30.67;;;;;;;-6.51;100.00;97600.44;1022248;29;20505;-66
2023/02/10 01:59:42;;;;;;;79.47;29.73;;;;;;;-6.45;100.00;97605.13;1022420;28;20023;-68
2023/02/10 02:00:14;;;;;;;75.53;32.03;;;;;;;-6.50;100.00;97584.22;1022855;28;20019;-65
2023/02/10 02:00:45;;;;;;;81.63;31.45;;;;;;;-6.26;100.00;97604.59;1027174;28;20082;-67
2023/02/10 02:01:16;;;;;;;80.90;32.57;;;;;;;-6.15;100.00;97601.28;1030201;28;20178;-65
2023/02/10 02:01:47;;;;;;;76.95;32.20;;;;;;;-6.15;100.00;97598.72;1030203;28;20023;-67
2023/02/10 02:02:18;;;;;;;85.50;33.60;;;;;;;-6.06;100.00;97598.06;1034450;28;20110;-67
2023/02/10 02:02:48;;;;;;;78.80;33.90;;;;;;;-5.95;100.00;97602.38;1030451;28;20734;-67
2023/02/10 02:03:18;;;;;;;84.53;33.17;;;;;;;-5.88;100.00;97600.94;1033878;28;20033;-71
2023/02/10 02:03:49;;;;;;;81.23;33.87;;;;;;;-5.93;100.00;97598.78;1026313;28;20046;-67
2023/02/10 02:04:19;;;;;;;87.30;34.70;;;;;;;-5.99;100.00;97585.63;1026603;28;20027;-64
2023/02/10 02:05:00;;;;;;;73.47;33.00;;;;;;;-5.86;100.00;97606.78;1026123;28;20035;-69
2023/02/10 02:05:33;;;;;;;81.05;33.40;;;;;;;-5.86;100.00;97591.44;1028004;28;20023;-67
2023/02/10 02:06:04;;;;;;;82.40;33.88;;;;;;;-5.67;100.00;97601.09;1028535;28;20030;-66
2023/02/10 02:06:34;;;;;;;76.10;32.17;;;;;;;-5.73;100.00;97597.28;1024619;28;20035;-68
2023/02/10 02:07:05;;;;;;;82.83;33.27;;;;;;;-5.77;100.00;97589.91;1025702;28;20521;-67
2023/02/10 02:07:36;;;;;;;70.33;32.60;;;;;;;-5.78;100.00;97601.09;1022015;28;20083;-68
2023/02/10 02:08:13;;;;;;;80.63;31.87;;;;;;;-5.70;100.00;97598.75;1030351;28;20650;-68
2023/02/10 02:08:43;;;;;;;78.72;30.58;;;;;;;-5.67;100.00;97593.41;1029126;28;20564;-66
2023/02/10 02:09:14;;;;;;;71.90;29.23;;;;;;;-5.79;100.00;97594.34;1022076;29;20023;-67
2023/02/10 02:09:44;;;;;;;74.33;30.17;;;;;;;-5.80;100.00;97600.38;1023554;28;20016;-69
2023/02/10 02:10:15;;;;;;;66.87;29.57;;;;;;;-5.82;100.00;97600.50;1026035;28;20125;-67
2023/02/10 02:10:54;;;;;;;75.30;31.40;;;;;;;-5.86;100.00;97600.84;1025612;28;20022;-67
2023/02/10 02:11:45;;;;;;;67.22;30.58;;;;;;;-5.95;100.00;97600.63;1029666;28;20026;-67
2023/02/10 02:12:41;;;;;;;70.65;29.15;;;;;;;-5.93;100.00;97600.53;1030444;28;20118;-66
2023/02/10 02:13:35;;;;;;;71.00;27.98;;;;;;;-6.04;100.00;97598.72;1034437;28;20034;-69
2023/02/10 02:14:18;;;;;;;63.78;26.98;;;;;;;-6.08;100.00;97602.44;1036621;28;20029;-68
2023/02/10 02:14:52;;;;;;;68.65;27.95;;;;;;;-6.09;100.00;97605.94;1041885;28;20564;-69
2023/02/10 02:15:33;;;;;;;61.20;27.85;;;;;;;-6.13;100.00;97607.09;1037348;28;20048;-68
2023/02/10 02:16:09;;;;;;;71.00;28.02;;;;;;;-6.17;100.00;97603.09;1025908;28;20027;-67
2023/02/10 02:16:52;;;;;;;61.20;26.10;;;;;;;-6.19;100.00;97612.66;1022582;28;20031;-65
2023/02/10 02:17:25;;;;;;;70.47;26.48;;;;;;;-6.21;100.00;97606.81;1024337;28;20091;-70
2023/02/10 02:18:09;;;;;;;65.93;28.13;;;;;;;-6.25;100.00;97605.41;1032092;28;20030;-69
2023/02/10 02:18:45;;;;;;;60.85;27.38;;;;;;;-6.26;100.00;97601.25;1038526;28;20392;-67
2023/02/10 02:19:52;;;;;;;60.42;27.15;;;;;;;-6.37;100.00;97585.88;1038491;28;20037;-70
2023/02/10 02:20:45;;;;;;;60.95;26.42;;;;;;;-6.29;100.00;97604.03;1036977;28;20048;-70
2023/02/10 02:21:43;;;;;;;68.75;25.95;;;;;;;-6.33;100.00;97602.63;1038224;28;20021;-66
2023/02/10 02:22:40;;;;;;;62.10;26.35;;;;;;;-6.37;100.00;97601.19;1038731;28;20022;-66
2023/02/10 02:23:34;;;;;;;64.53;26.60;;;;;;;-6.39;100.00;97600.50;1034839;28;20036;-67
2023/02/10 02:24:21;;;;;;;51.33;22.65;;;;;;;-6.38;100.00;97602.13;1037438;28;20033;-67
2023/02/10 02:25:19;;;;;;;66.55;24.95;;;;;;;-6.39;100.00;97597.94;1037847;28;20540;-68
2023/02/10 02:26:13;;;;;;;59.58;24.67;;;;;;;-6.39;100.00;97595.41;1030419;28;20022;-66
2023/02/10 02:27:02;;;;;;;61.30;25.25;;;;;;;-6.35;100.00;97595.06;1030855;28;20105;-67
2023/02/10 02:27:51;;;;;;;62.35;25.95;;;;;;;-6.37;100.00;97596.09;1036094;28;20411;-66
2023/02/10 02:28:25;;;;;;;68.15;26.45;;;;;;;-6.32;100.00;97597.38;1035160;28;20064;-66
2023/02/10 02:29:23;;;;;;;61.60;26.77;;;;;;;-6.32;100.00;97599.13;1035339;28;20034;-66
2023/02/10 02:30:32;;;;;;;60.28;25.85;;;;;;;-6.30;100.00;97602.41;1035124;28;20065;-65